createdAt,value
2022-10-24T00:00:22.973Z,99972.16
2022-10-24T00:05:24.557Z,99973.75
2022-10-24T00:10:26.183Z,99985.31
2022-10-24T00:15:27.697Z,99969.75
2022-10-24T00:20:29.254Z,99965.16
2022-10-24T00:25:30.832Z,99950.47
2022-10-24T00:30:32.458Z,99946.00
2022-10-24T00:35:34.091Z,99945.84
2022-10-24T00:40:35.637Z,99960.06
2022-10-24T00:45:55.627Z,99944.84
2022-10-24T00:50:59.036Z,99958.63
2022-10-24T00:56:02.901Z,99969.16
2022-10-24T01:01:06.134Z,99966.66
2022-10-24T01:06:23.394Z,99958.09
2022-10-24T01:11:27.872Z,99953.69
2022-10-24T01:16:35.476Z,99940.94
2022-10-24T01:21:45.828Z,99950.75
2022-10-24T01:27:12.005Z,99932.97
2022-10-24T01:32:32.374Z,99938.84
2022-10-24T01:37:43.691Z,99930.78
2022-10-24T01:42:46.967Z,99926.13
2022-10-24T01:47:53.332Z,99925.38
2022-10-24T01:52:57.619Z,99917.78
2022-10-24T01:57:59.824Z,99925.06
2022-10-24T02:03:27.344Z,99920.09
2022-10-24T02:08:35.578Z,99923.06
2022-10-24T02:13:53.336Z,99931.06
2022-10-24T02:18:57.516Z,99926.41
2022-10-24T02:24:25.329Z,99929.16
2022-10-24T02:29:34.065Z,99925.59
2022-10-24T02:34:38.574Z,99925.22
2022-10-24T02:39:42.669Z,99915.84
2022-10-24T02:44:48.090Z,99909.41
2022-10-24T02:49:49.834Z,99905.03
2022-10-24T02:54:51.501Z,99913.25
2022-10-24T02:59:53.830Z,99899.72
2022-10-24T03:04:55.373Z,99919.47
2022-10-24T03:09:56.931Z,99926.72
2022-10-24T03:14:58.438Z,99939.09
2022-10-24T03:19:59.984Z,99958.88
2022-10-24T03:25:03.461Z,99960.41
2022-10-24T03:30:05.844Z,99972.13
2022-10-24T03:35:11.711Z,99957.81
2022-10-24T03:40:15.683Z,99955.72
2022-10-24T03:45:17.314Z,99963.94
2022-10-24T03:50:19.259Z,99958.22
2022-10-24T03:55:20.804Z,99963.09
2022-10-24T04:00:22.482Z,99973.09
2022-10-24T04:05:24.020Z,99983.56
2022-10-24T04:10:25.900Z,99989.75
2022-10-24T04:15:27.634Z,100004.84
2022-10-24T04:20:29.425Z,100012.75
2022-10-24T04:25:30.951Z,100011.66
2022-10-24T04:30:32.793Z,100010.44
2022-10-24T04:35:36.511Z,99996.94
2022-10-24T04:40:38.053Z,99988.25
2022-10-24T04:45:39.651Z,99997.25
2022-10-24T04:50:42.291Z,100053.22
2022-10-24T04:55:47.290Z,100079.06
2022-10-24T05:00:49.743Z,100077.56
2022-10-24T05:05:51.453Z,100058.56
2022-10-24T05:10:53.369Z,100069.47
2022-10-24T05:15:55.072Z,100076.13
2022-10-24T05:20:57.990Z,100076.13
2022-10-24T05:25:59.614Z,100097.38
2022-10-24T05:31:01.198Z,100079.97
2022-10-24T05:36:03.550Z,100081.44
2022-10-24T05:41:05.228Z,100067.31
2022-10-24T05:46:07.389Z,100078.78
2022-10-24T05:51:09.044Z,100067.91
2022-10-24T05:56:10.609Z,100065.94
2022-10-24T06:01:13.213Z,100079.56
2022-10-24T06:06:14.864Z,100105.00
2022-10-24T06:11:16.999Z,100121.03
2022-10-24T06:16:18.670Z,100133.44
2022-10-24T06:21:20.230Z,100130.69
2022-10-24T06:26:24.019Z,100151.34
2022-10-24T06:31:44.316Z,100178.31
2022-10-24T06:36:45.726Z,100181.38
2022-10-24T06:41:47.356Z,100189.78
2022-10-24T06:46:52.325Z,100213.63
2022-10-24T06:51:53.875Z,100211.00
2022-10-24T06:56:55.473Z,100231.44
2022-10-24T07:02:01.712Z,100220.69
2022-10-24T07:07:06.737Z,100215.94
2022-10-24T07:12:08.652Z,100215.94
2022-10-24T07:17:10.213Z,100237.72
2022-10-24T07:22:17.397Z,100246.81
2022-10-24T07:27:18.924Z,100253.56
2022-10-24T07:32:20.913Z,100269.00
2022-10-24T07:37:22.533Z,100283.53
2022-10-24T07:42:24.114Z,100279.22
2022-10-24T07:47:25.777Z,100294.72
2022-10-24T07:52:27.418Z,100262.88
2022-10-24T07:57:29.027Z,100257.69
2022-10-24T08:02:30.542Z,100237.91
2022-10-24T08:07:32.237Z,100224.75
2022-10-24T08:12:34.073Z,100205.06
2022-10-24T08:17:36.802Z,100184.16
2022-10-24T08:22:39.576Z,100170.91
2022-10-24T08:32:49.051Z,100108.69
2022-10-24T08:37:50.632Z,100107.59
2022-10-24T08:42:52.416Z,100079.09
2022-10-24T08:48:08.861Z,100063.00
2022-10-24T08:53:21.246Z,100059.44
2022-10-24T08:58:31.545Z,100051.94
2022-10-24T09:03:56.638Z,100031.75
2022-10-24T09:09:12.277Z,100041.69
2022-10-24T09:14:17.627Z,100040.53
2022-10-24T09:19:23.178Z,100037.97
2022-10-24T09:24:30.514Z,100043.47
2022-10-24T09:29:33.992Z,100047.25
2022-10-24T09:34:35.556Z,100064.41
2022-10-24T09:39:37.092Z,100065.91
2022-10-24T09:44:44.035Z,100066.88
2022-10-24T09:49:49.025Z,100059.50
2022-10-24T09:55:17.818Z,100064.97
2022-10-24T10:00:31.549Z,100075.69
2022-10-24T10:05:46.450Z,100069.16
2022-10-24T10:11:06.985Z,100065.81
2022-10-24T10:16:22.113Z,100067.41
2022-10-24T10:21:25.136Z,100073.25
2022-10-24T10:26:45.051Z,100071.75
2022-10-24T10:31:56.583Z,100070.38
2022-10-24T10:37:17.090Z,100075.50
2022-10-24T10:43:03.086Z,100086.66
2022-10-24T10:48:40.138Z,100098.84
2022-10-24T10:54:01.567Z,100111.31
2022-10-24T10:59:06.054Z,100113.66
2022-10-24T11:04:30.577Z,100125.03
2022-10-24T11:09:50.909Z,100125.63
2022-10-24T11:20:30.345Z,100125.50
2022-10-24T11:25:46.857Z,100120.31
2022-10-24T11:31:10.633Z,100131.19
2022-10-24T11:36:23.446Z,100127.88
2022-10-24T11:41:43.020Z,100138.47
2022-10-24T11:46:49.922Z,100130.06
2022-10-24T11:51:57.563Z,100090.88
2022-10-24T11:57:04.308Z,100080.16
2022-10-24T12:02:21.086Z,100064.25
2022-10-24T12:08:04.419Z,100050.44
2022-10-24T12:13:20.886Z,100086.03
2022-10-24T12:18:31.040Z,100090.16
2022-10-24T12:23:33.066Z,100083.19
2022-10-24T12:28:35.975Z,100076.59
2022-10-24T12:33:37.517Z,100064.75
2022-10-24T12:38:39.261Z,100065.56
2022-10-24T12:43:47.948Z,100067.88
2022-10-24T12:48:58.947Z,100069.00
2022-10-24T12:54:12.776Z,100062.31
2022-10-24T12:59:24.722Z,100076.97
2022-10-24T13:04:52.854Z,100074.50
2022-10-24T13:10:12.262Z,100072.59
2022-10-24T13:15:24.569Z,100098.19
2022-10-24T13:20:29.466Z,100085.44
2022-10-24T13:25:40.477Z,100084.50
2022-10-24T13:30:44.783Z,100076.78
2022-10-24T13:35:49.275Z,100077.78
2022-10-24T13:40:51.041Z,100079.63
2022-10-24T13:45:52.514Z,100093.78
2022-10-24T13:51:21.707Z,100108.22
2022-10-24T13:56:23.391Z,100107.91
2022-10-24T14:01:30.279Z,100108.59
2022-10-24T14:06:33.787Z,100109.66
2022-10-24T14:11:40.592Z,100115.31
2022-10-24T14:16:42.131Z,100118.91
2022-10-24T14:21:46.042Z,100094.31
2022-10-24T14:26:51.530Z,100101.22
2022-10-24T14:32:07.932Z,100107.69
2022-10-24T14:37:24.937Z,100109.25
2022-10-24T14:42:27.831Z,100109.78
2022-10-24T14:47:35.732Z,100121.13
2022-10-24T14:52:38.031Z,100106.13
2022-10-24T14:57:39.889Z,100082.13
2022-10-24T15:02:43.274Z,100060.09
2022-10-24T15:08:02.973Z,100037.47
2022-10-24T15:13:15.231Z,100039.25
2022-10-24T15:18:24.676Z,100018.22
2022-10-24T15:23:27.810Z,100016.56
2022-10-24T15:29:07.040Z,100006.31
2022-10-24T15:34:12.597Z,100009.41
2022-10-24T15:39:18.095Z,100001.91
2022-10-24T15:44:26.517Z,100004.16
2022-10-24T15:49:28.980Z,99992.03
2022-10-24T15:54:30.537Z,100007.84
2022-10-24T15:59:32.479Z,100005.72
2022-10-24T16:04:34.062Z,100009.88
2022-10-24T16:09:35.570Z,100017.69
2022-10-24T16:14:37.119Z,99992.53
2022-10-24T16:19:38.632Z,100007.72
2022-10-24T16:24:40.256Z,100014.91
2022-10-24T16:29:41.778Z,100020.44
2022-10-24T16:34:48.808Z,100017.06
2022-10-24T16:39:50.341Z,100023.16
2022-10-24T16:44:52.423Z,100026.19
2022-10-24T16:49:57.855Z,100034.19
2022-10-24T16:54:59.523Z,100054.13
2022-10-24T17:00:01.104Z,100050.22
2022-10-24T17:05:02.664Z,100058.38
2022-10-24T17:10:04.566Z,100032.25
2022-10-24T17:15:06.965Z,100013.13
2022-10-24T17:20:09.994Z,100044.19
2022-10-24T17:25:26.244Z,100081.84
2022-10-24T17:30:29.723Z,100095.22
2022-10-24T17:35:32.352Z,100129.16
2022-10-24T17:40:43.214Z,100165.66
2022-10-24T17:45:45.038Z,100158.13
2022-10-24T17:50:49.193Z,100141.84
2022-10-24T17:55:50.717Z,100160.53
2022-10-24T18:00:52.373Z,100170.81
2022-10-24T18:05:58.730Z,100167.72
2022-10-24T18:11:02.285Z,100195.13
2022-10-24T18:16:08.817Z,100185.38
2022-10-24T18:21:13.459Z,100182.03
2022-10-24T18:26:20.832Z,100185.13
2022-10-24T18:31:25.348Z,100192.03
2022-10-24T18:36:29.964Z,100182.72
2022-10-24T18:41:41.559Z,100188.03
2022-10-24T18:46:43.478Z,100206.47
2022-10-24T18:52:07.176Z,100219.97
2022-10-24T18:57:33.371Z,100218.56
2022-10-24T19:02:43.232Z,100214.53
2022-10-24T19:07:45.875Z,100213.97
2022-10-24T19:12:48.295Z,100214.81
2022-10-24T19:17:51.165Z,100208.66
2022-10-24T19:22:52.805Z,100241.56
2022-10-24T19:27:54.521Z,100256.22
2022-10-24T19:32:56.177Z,100254.81
2022-10-24T19:37:57.727Z,100259.22
2022-10-24T19:42:59.310Z,100223.72
2022-10-24T19:48:01.226Z,100206.44
2022-10-24T19:53:02.937Z,100199.19
2022-10-24T19:58:12.561Z,100194.03
2022-10-24T20:03:15.004Z,100208.28
2022-10-24T20:08:16.582Z,100225.38
2022-10-24T20:13:18.262Z,100246.66
2022-10-24T20:18:19.840Z,100245.13
2022-10-24T20:23:22.644Z,100250.44
2022-10-24T20:28:24.241Z,100260.00
2022-10-24T20:33:25.817Z,100275.69
2022-10-24T20:38:28.492Z,100281.47
2022-10-24T20:43:30.232Z,100282.50
2022-10-24T20:48:33.386Z,100285.69
2022-10-24T20:53:34.997Z,100292.75
2022-10-24T20:58:38.272Z,100291.94
2022-10-24T21:03:40.334Z,100298.03
2022-10-24T21:08:41.932Z,100301.13
2022-10-24T21:13:44.708Z,100309.44
2022-10-24T21:18:46.294Z,100316.25
2022-10-24T21:23:51.967Z,100315.28
2022-10-24T21:28:59.465Z,100309.56
2022-10-24T21:34:10.850Z,100324.44
2022-10-24T21:39:16.679Z,100315.97
2022-10-24T21:44:18.246Z,100322.25
2022-10-24T21:49:20.397Z,100313.19
2022-10-24T21:54:24.443Z,100317.94
2022-10-24T21:59:25.968Z,100318.97
2022-10-24T22:04:27.545Z,100312.91
2022-10-24T22:09:29.180Z,100312.91
2022-10-24T22:14:30.780Z,100317.00
2022-10-24T22:19:32.345Z,100318.84
2022-10-24T22:24:33.910Z,100319.25
2022-10-24T22:29:35.424Z,100328.03
2022-10-24T22:34:39.502Z,100337.06
2022-10-24T22:39:41.510Z,100338.25
2022-10-24T22:44:44.036Z,100338.13
2022-10-24T22:50:21.628Z,100336.91
2022-10-24T22:55:43.782Z,100354.56
2022-10-24T23:00:50.569Z,100358.03
2022-10-24T23:05:59.758Z,100364.84
2022-10-24T23:11:01.568Z,100376.44
2022-10-24T23:16:29.052Z,100379.09
2022-10-24T23:21:36.208Z,100396.81
2022-10-24T23:26:49.573Z,100401.94
2022-10-24T23:31:51.405Z,100403.69
2022-10-24T23:36:59.066Z,100415.78
2022-10-24T23:42:01.448Z,100414.91
2022-10-24T23:47:39.355Z,100417.81
2022-10-24T23:53:01.987Z,100415.69
2022-10-24T23:58:03.550Z,100415.69
